createdAt,value
2024-04-08T00:03:17.627Z,14.40
2024-04-08T00:07:02.231Z,14.70
2024-04-08T00:10:46.771Z,15.20
2024-04-08T00:14:37.463Z,13.80
2024-04-08T00:18:14.706Z,14.60
2024-04-08T00:22:12.677Z,14.10
2024-04-08T00:26:01.832Z,14.50
2024-04-08T00:29:43.106Z,14.60
2024-04-08T00:33:37.891Z,15.00
2024-04-08T00:37:17.873Z,14.80
2024-04-08T00:41:06.166Z,14.00
2024-04-08T00:44:46.437Z,14.00
2024-04-08T00:48:36.144Z,15.00
2024-04-08T00:52:23.857Z,15.10
2024-04-08T00:56:14.709Z,14.60
2024-04-08T00:59:56.753Z,14.60
2024-04-08T01:03:47.605Z,13.60
2024-04-08T01:07:32.828Z,13.60
2024-04-08T01:11:23.608Z,14.90
2024-04-08T01:14:51.224Z,15.70
2024-04-08T01:18:39.404Z,16.10
2024-04-08T01:22:28.478Z,15.00
2024-04-08T01:26:07.250Z,15.00
2024-04-08T01:29:55.635Z,15.50
2024-04-08T01:33:44.426Z,15.40
2024-04-08T01:37:36.049Z,15.60
2024-04-08T01:41:18.113Z,16.20
2024-04-08T01:44:57.415Z,16.10
2024-04-08T01:48:35.575Z,15.40
2024-04-08T01:52:05.549Z,16.80
2024-04-08T01:55:41.082Z,15.50
2024-04-08T01:59:24.878Z,15.80
2024-04-08T02:03:13.832Z,16.30
2024-04-08T02:06:45.117Z,16.70
2024-04-08T02:10:05.382Z,16.80
2024-04-08T02:13:38.604Z,16.80
2024-04-08T02:17:08.351Z,16.80
2024-04-08T02:20:57.138Z,16.90
2024-04-08T02:24:39.037Z,16.20
2024-04-08T02:28:28.258Z,16.70
2024-04-08T02:32:17.324Z,16.60
2024-04-08T02:35:59.642Z,16.20
2024-04-08T02:39:40.063Z,16.40
2024-04-08T02:43:29.141Z,15.10
2024-04-08T02:47:11.132Z,15.60
2024-04-08T02:55:36.391Z,18.50
2024-04-08T03:13:04.234Z,14.90
2024-04-08T03:16:49.566Z,14.70
2024-04-08T03:20:11.741Z,15.20
2024-04-08T03:23:42.566Z,15.30
2024-04-08T03:27:35.078Z,15.20
2024-04-08T03:31:24.415Z,15.80
2024-04-08T03:34:58.236Z,15.00
2024-04-08T03:38:47.034Z,15.20
2024-04-08T03:42:35.760Z,14.90
2024-04-08T03:46:24.725Z,14.50
2024-04-08T03:49:51.140Z,15.60
2024-04-08T03:53:21.893Z,15.40
2024-04-08T03:57:05.927Z,15.20
2024-04-08T04:00:56.173Z,14.10
2024-04-08T04:04:44.651Z,14.50
2024-04-08T04:08:51.730Z,15.30
2024-04-08T04:12:40.946Z,15.30
2024-04-08T04:16:29.774Z,14.10
2024-04-08T04:20:11.701Z,13.50
2024-04-08T04:23:55.702Z,14.70
2024-04-08T04:27:43.526Z,16.60
2024-04-08T04:31:17.254Z,15.30
2024-04-08T04:34:55.583Z,14.30
2024-04-08T04:38:16.313Z,15.70
2024-04-08T04:42:04.274Z,22.80
2024-04-08T04:46:01.517Z,13.60
2024-04-08T04:49:43.398Z,13.30
2024-04-08T04:53:28.828Z,11.90
2024-04-08T05:01:37.787Z,11.70
2024-04-08T05:05:27.647Z,11.20
2024-04-08T05:09:09.746Z,12.00
2024-04-08T05:12:37.582Z,10.60
2024-04-08T05:16:35.386Z,10.50
2024-04-08T05:20:24.251Z,9.50
2024-04-08T05:24:11.881Z,9.10
2024-04-08T05:28:01.152Z,8.10
2024-04-08T05:31:50.010Z,12.80
2024-04-08T05:35:39.047Z,8.90
2024-04-08T05:39:28.296Z,8.30
2024-04-08T05:43:12.225Z,7.50
2024-04-08T05:47:01.084Z,7.30
2024-04-08T05:50:06.598Z,7.70
2024-04-08T05:53:55.584Z,7.60
2024-04-08T05:57:44.864Z,6.90
2024-04-08T06:01:23.143Z,6.50
2024-04-08T06:04:58.137Z,5.90
2024-04-08T06:08:40.021Z,6.20
2024-04-08T06:12:42.164Z,5.90
2024-04-08T06:16:29.990Z,5.40
2024-04-08T06:19:53.857Z,5.50
2024-04-08T06:23:20.885Z,5.30
2024-04-08T06:27:02.888Z,5.10
2024-04-08T06:30:38.508Z,5.30
2024-04-08T06:34:19.166Z,4.80
2024-04-08T06:38:08.069Z,5.10
2024-04-08T06:41:57.495Z,5.10
2024-04-08T06:45:32.400Z,5.40
2024-04-08T06:49:07.641Z,5.10
2024-04-08T06:52:34.154Z,5.60
2024-04-08T06:55:31.721Z,5.10
2024-04-08T06:59:02.918Z,5.10
2024-04-08T07:02:21.761Z,5.70
2024-04-08T07:05:17.789Z,4.80
2024-04-08T07:08:26.447Z,5.00
2024-04-08T07:11:52.758Z,4.60
2024-04-08T07:15:00.857Z,5.50
2024-04-08T07:18:33.533Z,4.80
2024-04-08T07:22:06.427Z,5.30
2024-04-08T07:25:38.699Z,5.10
2024-04-08T07:29:06.197Z,4.80
2024-04-08T07:32:55.486Z,4.70
2024-04-08T07:36:31.399Z,5.40
2024-04-08T07:40:20.339Z,4.20
2024-04-08T07:44:02.342Z,4.80
2024-04-08T07:47:55.146Z,4.50
2024-04-08T07:51:30.782Z,4.50
2024-04-08T07:54:49.066Z,4.70
2024-04-08T07:58:32.783Z,5.00
2024-04-08T08:02:14.600Z,4.40
2024-04-08T08:05:03.062Z,4.80
2024-04-08T08:08:30.226Z,4.30
2024-04-08T08:12:11.883Z,4.00
2024-04-08T08:16:07.125Z,4.10
2024-04-08T08:19:12.547Z,3.80
2024-04-08T08:22:14.617Z,4.00
2024-04-08T08:26:02.451Z,3.40
2024-04-08T08:29:28.653Z,3.30
2024-04-08T08:32:53.321Z,3.50
2024-04-08T08:35:38.133Z,3.50
2024-04-08T08:39:03.456Z,8.60
2024-04-08T08:42:23.773Z,4.00
2024-04-08T08:46:17.185Z,4.50
2024-04-08T08:49:59.856Z,3.30
2024-04-08T08:53:45.476Z,3.60
2024-04-08T08:57:05.326Z,4.70
2024-04-08T09:00:03.880Z,3.70
2024-04-08T09:03:55.682Z,3.10
2024-04-08T09:07:03.651Z,8.90
2024-04-08T09:10:30.568Z,6.80
2024-04-08T09:13:41.994Z,3.90
2024-04-08T09:16:49.865Z,17.90
2024-04-08T09:19:55.082Z,11.80
2024-04-08T09:23:37.846Z,3.80
2024-04-08T09:27:06.700Z,5.00
2024-04-08T09:30:14.039Z,11.80
2024-04-08T09:33:23.052Z,6.90
2024-04-08T09:36:10.895Z,3.50
2024-04-08T09:39:02.209Z,3.10
2024-04-08T09:42:01.342Z,3.00
2024-04-08T09:44:49.815Z,3.80
2024-04-08T09:48:27.643Z,2.70
2024-04-08T09:51:47.700Z,3.00
2024-04-08T09:54:58.289Z,2.80
2024-04-08T09:57:38.805Z,2.80
2024-04-08T10:01:06.682Z,2.80
2024-04-08T10:03:54.593Z,2.80
2024-04-08T10:07:18.938Z,2.80
2024-04-08T10:10:05.338Z,2.60
2024-04-08T10:12:45.439Z,2.80
2024-04-08T10:15:26.969Z,2.50
2024-04-08T10:18:04.789Z,3.00
2024-04-08T10:21:12.401Z,2.80
2024-04-08T10:24:01.313Z,2.90
2024-04-08T10:27:15.612Z,2.70
2024-04-08T10:30:28.826Z,3.00
2024-04-08T10:33:30.797Z,3.40
2024-04-08T10:36:43.337Z,2.70
2024-04-08T10:39:27.962Z,2.80
2024-04-08T10:42:31.554Z,2.90
2024-04-08T10:45:26.606Z,2.60
2024-04-08T10:48:28.020Z,2.60
2024-04-08T10:51:37.617Z,2.70
2024-04-08T10:54:39.107Z,2.60
2024-04-08T10:58:12.510Z,2.70
2024-04-08T11:01:30.374Z,2.50
2024-04-08T11:04:31.577Z,4.40
2024-04-08T11:07:55.432Z,10.60
2024-04-08T11:10:44.209Z,3.20
2024-04-08T11:13:43.316Z,2.80
2024-04-08T11:16:18.843Z,2.40
2024-04-08T11:19:07.611Z,2.10
2024-04-08T11:22:14.227Z,2.90
2024-04-08T11:24:52.226Z,2.80
2024-04-08T11:27:39.521Z,2.80
2024-04-08T11:30:20.111Z,3.00
2024-04-08T11:33:32.380Z,3.00
2024-04-08T11:36:33.968Z,2.70
2024-04-08T11:39:50.507Z,3.00
2024-04-08T11:42:51.951Z,2.50
2024-04-08T11:45:46.000Z,2.60
2024-04-08T11:49:07.354Z,2.70
2024-04-08T11:51:43.624Z,2.80
2024-04-08T11:55:09.205Z,2.30
2024-04-08T11:57:57.244Z,2.50
2024-04-08T12:01:20.362Z,2.50
2024-04-08T12:04:12.047Z,2.80
2024-04-08T12:07:26.947Z,2.70
2024-04-08T12:10:10.647Z,2.70
2024-04-08T12:12:46.867Z,2.90
2024-04-08T12:16:05.419Z,3.20
2024-04-08T12:18:55.503Z,2.90
2024-04-08T12:21:52.915Z,2.60
2024-04-08T12:24:45.014Z,2.60
2024-04-08T12:27:44.073Z,3.20
2024-04-08T12:30:17.893Z,2.70
2024-04-08T12:32:53.964Z,2.80
2024-04-08T12:35:38.862Z,2.70
2024-04-08T12:38:24.090Z,3.00
2024-04-08T12:40:53.136Z,2.50
2024-04-08T12:43:24.103Z,2.70
2024-04-08T12:46:18.241Z,3.00
2024-04-08T12:49:16.219Z,3.10
2024-04-08T12:51:51.472Z,2.20
2024-04-08T12:54:32.814Z,2.80
2024-04-08T12:57:15.759Z,2.80
2024-04-08T13:00:35.583Z,2.80
2024-04-08T13:03:23.567Z,2.90
2024-04-08T13:06:33.342Z,2.50
2024-04-08T13:09:16.486Z,3.00
2024-04-08T13:11:47.292Z,2.80
2024-04-08T13:14:21.793Z,2.40
2024-04-08T13:17:04.256Z,3.40
2024-04-08T13:19:47.569Z,3.00
2024-04-08T13:22:31.359Z,2.10
2024-04-08T13:25:07.630Z,2.20
2024-04-08T13:27:58.299Z,2.80
2024-04-08T13:30:49.139Z,3.00
2024-04-08T13:33:38.677Z,2.50
2024-04-08T13:36:27.568Z,2.60
2024-04-08T13:39:09.424Z,2.50
2024-04-08T13:41:45.394Z,2.50
2024-04-08T13:44:29.735Z,2.20
2024-04-08T13:47:08.348Z,2.50
2024-04-08T13:49:45.933Z,2.20
2024-04-08T13:52:18.841Z,2.30
2024-04-08T13:54:57.408Z,2.20
2024-04-08T13:57:31.226Z,2.60
2024-04-08T14:00:24.663Z,2.20
2024-04-08T14:03:07.676Z,2.40
2024-04-08T14:06:01.115Z,2.30
2024-04-08T14:08:51.836Z,2.20
2024-04-08T14:12:01.749Z,2.20
2024-04-08T14:14:52.704Z,2.10
2024-04-08T14:17:39.310Z,2.30
2024-04-08T14:20:23.854Z,2.10
2024-04-08T14:23:03.653Z,2.20
2024-04-08T14:25:55.040Z,2.10
2024-04-08T14:28:31.822Z,2.40
2024-04-08T14:31:27.684Z,2.50
2024-04-08T14:34:30.600Z,2.60
2024-04-08T14:37:42.408Z,2.40
2024-04-08T14:40:43.620Z,2.20
2024-04-08T14:44:03.982Z,2.30
2024-04-08T14:46:59.168Z,2.40
2024-04-08T14:49:40.019Z,3.10
2024-04-08T14:52:20.957Z,3.10
2024-04-08T14:55:19.894Z,3.10
2024-04-08T14:58:12.700Z,2.60
2024-04-08T15:01:18.292Z,2.50
2024-04-08T15:04:12.356Z,2.60
2024-04-08T15:07:16.556Z,2.30
2024-04-08T15:10:07.750Z,2.00
2024-04-08T15:12:49.949Z,2.10
2024-04-08T15:15:39.241Z,2.00
2024-04-08T15:18:46.507Z,2.10
2024-04-08T15:21:58.270Z,2.30
2024-04-08T15:25:10.610Z,2.20
2024-04-08T15:28:08.910Z,2.20
2024-04-08T15:31:43.383Z,2.20
2024-04-08T15:34:36.868Z,3.00
2024-04-08T15:38:01.744Z,5.00
2024-04-08T15:41:03.956Z,3.80
2024-04-08T15:43:40.342Z,3.20
2024-04-08T15:46:43.768Z,3.70
2024-04-08T15:49:44.094Z,3.00
2024-04-08T15:52:57.688Z,2.90
2024-04-08T15:55:59.991Z,2.60
2024-04-08T15:58:44.446Z,3.00
2024-04-08T16:01:23.551Z,3.00
2024-04-08T16:04:03.979Z,2.70
2024-04-08T16:07:23.256Z,2.80
2024-04-08T16:10:19.792Z,2.50
2024-04-08T16:13:10.648Z,2.50
2024-04-08T16:15:56.262Z,2.40
2024-04-08T16:18:53.385Z,3.10
2024-04-08T16:22:21.174Z,2.70
2024-04-08T16:25:55.728Z,2.50
2024-04-08T16:29:37.606Z,3.40
2024-04-08T16:33:01.604Z,3.70
2024-04-08T16:35:46.076Z,4.20
2024-04-08T16:38:41.438Z,4.50
2024-04-08T16:41:53.646Z,4.90
2024-04-08T16:44:48.117Z,4.60
2024-04-08T16:47:39.898Z,4.80
2024-04-08T16:52:57.282Z,5.60
2024-04-08T16:56:09.834Z,4.50
2024-04-08T16:59:17.514Z,4.20
2024-04-08T17:02:00.654Z,5.80
2024-04-08T17:05:03.339Z,6.80
2024-04-08T17:07:58.213Z,7.20
2024-04-08T17:11:01.757Z,7.60
2024-04-08T17:14:14.805Z,6.80
2024-04-08T17:17:29.093Z,5.80
2024-04-08T17:20:46.328Z,5.70
2024-04-08T17:24:07.919Z,5.20
2024-04-08T17:27:18.743Z,5.40
2024-04-08T17:30:19.912Z,4.40
2024-04-08T17:33:24.787Z,4.70
2024-04-08T17:35:54.567Z,4.30
2024-04-08T17:38:50.062Z,4.10
2024-04-08T17:41:38.624Z,4.30
2024-04-08T17:44:25.093Z,4.80
2024-04-08T17:47:26.271Z,4.10
2024-04-08T17:50:28.761Z,4.30
2024-04-08T17:53:38.899Z,4.80
2024-04-08T17:56:58.149Z,5.00
2024-04-08T18:00:05.132Z,4.20
2024-04-08T18:03:08.946Z,4.50
2024-04-08T18:06:28.545Z,4.30
2024-04-08T18:09:32.672Z,4.50
2024-04-08T18:12:39.879Z,4.30
2024-04-08T18:15:56.090Z,4.30
2024-04-08T18:18:58.831Z,5.50
2024-04-08T18:22:03.447Z,4.50
2024-04-08T18:25:38.242Z,4.40
2024-04-08T18:31:24.356Z,5.30
2024-04-08T18:34:18.925Z,4.90
2024-04-08T18:37:14.322Z,5.50
2024-04-08T18:40:37.444Z,5.10
2024-04-08T18:43:42.745Z,5.50
2024-04-08T18:47:18.949Z,5.60
2024-04-08T18:50:53.634Z,6.10
2024-04-08T18:54:41.530Z,5.50
2024-04-08T18:58:05.852Z,5.20
2024-04-08T19:01:44.703Z,5.40
2024-04-08T19:05:23.891Z,5.70
2024-04-08T19:08:52.515Z,5.90
2024-04-08T19:12:06.114Z,6.50
2024-04-08T19:15:30.912Z,6.30
2024-04-08T19:19:15.429Z,6.60
2024-04-08T19:22:59.044Z,6.50
2024-04-08T19:26:24.399Z,6.70
2024-04-08T19:29:54.862Z,7.10
2024-04-08T19:33:34.980Z,6.60
2024-04-08T19:36:23.539Z,8.10
2024-04-08T19:39:55.664Z,8.00
2024-04-08T19:43:41.926Z,8.00
2024-04-08T19:47:26.025Z,10.50
2024-04-08T19:50:51.477Z,9.60
2024-04-08T19:54:22.080Z,11.10
2024-04-08T19:57:20.021Z,12.80
2024-04-08T20:00:43.405Z,15.10
2024-04-08T20:04:22.973Z,17.20
2024-04-08T20:08:12.864Z,16.90
2024-04-08T20:11:00.090Z,21.30
2024-04-08T20:14:16.711Z,22.70
2024-04-08T20:18:18.668Z,24.00
2024-04-08T20:21:48.687Z,21.00
2024-04-08T20:25:06.836Z,22.30
2024-04-08T20:28:14.939Z,21.40
2024-04-08T20:31:45.412Z,21.30
2024-04-08T20:35:26.573Z,23.70
2024-04-08T20:38:54.076Z,24.70
2024-04-08T20:42:36.071Z,25.30
2024-04-08T20:46:07.794Z,23.60
2024-04-08T20:49:52.030Z,23.40
2024-04-08T20:52:51.423Z,23.70
2024-04-08T21:00:45.541Z,23.80
2024-04-08T21:04:34.832Z,22.40
2024-04-08T21:08:14.919Z,23.50
2024-04-08T21:11:38.024Z,20.70
2024-04-08T21:14:55.838Z,21.40
2024-04-08T21:18:56.885Z,22.90
2024-04-08T21:22:38.595Z,21.60
2024-04-08T21:26:31.498Z,20.80
2024-04-08T21:30:02.603Z,21.10
2024-04-08T21:33:17.932Z,22.00
2024-04-08T21:37:06.911Z,22.50
2024-04-08T21:40:31.205Z,19.60
2024-04-08T21:43:54.437Z,19.40
2024-04-08T21:47:21.881Z,18.80
2024-04-08T21:50:35.408Z,21.50
2024-04-08T21:53:44.724Z,21.00
2024-04-08T21:57:07.940Z,20.30
2024-04-08T22:00:29.489Z,21.30
2024-04-08T22:03:42.187Z,20.10
2024-04-08T22:07:02.536Z,19.00
2024-04-08T22:10:33.554Z,20.30
2024-04-08T22:13:53.954Z,19.30
2024-04-08T22:17:28.458Z,19.20
2024-04-08T22:20:34.256Z,18.60
2024-04-08T22:24:14.717Z,18.10
2024-04-08T22:27:39.025Z,17.10
2024-04-08T22:31:19.139Z,14.60
2024-04-08T22:35:18.533Z,14.60
2024-04-08T22:38:41.539Z,14.00
2024-04-08T22:41:57.226Z,15.80
2024-04-08T22:45:31.533Z,15.50
2024-04-08T22:49:10.259Z,13.70
2024-04-08T22:52:33.658Z,13.90
2024-04-08T22:55:46.556Z,13.60
2024-04-08T22:59:05.957Z,15.70
2024-04-08T23:02:50.064Z,16.30
2024-04-08T23:06:27.990Z,15.70
2024-04-08T23:10:05.363Z,15.70
2024-04-08T23:13:47.331Z,16.40
2024-04-08T23:17:25.396Z,16.50
2024-04-08T23:21:15.581Z,16.60
2024-04-08T23:25:04.373Z,16.50
2024-04-08T23:29:05.806Z,17.20
2024-04-08T23:32:40.098Z,15.50
2024-04-08T23:36:29.006Z,15.80
2024-04-08T23:39:39.098Z,16.50
2024-04-08T23:43:10.477Z,15.40
2024-04-08T23:46:59.446Z,15.70
2024-04-08T23:50:38.639Z,15.30
2024-04-08T23:53:58.319Z,15.30
2024-04-08T23:57:34.749Z,14.70
